Terminal Aerodrome Forecast
Issued by NWS North Platte, NE

Home | Current Version | Previous Version | Graphics & Text | Print | Product List | Glossary On
Versions: 1 2 3 4 5 6 7 8 9 10 11 12 13 14 15 16
000
FTUS43 KLBF 161559 AAA
TAFVTN
TAF AMD
KVTN 161559Z 1616/1712 19018G28KT P6SM SCT250
     FM170600 22012KT P6SM SCT250
     FM170900 25009KT P6SM SCT250
     FM171100 31009KT P6SM SCT200=

USA.gov is the U.S. government's official web portal to all federal, state and local government web resources and services.